createdAt,value
2018-02-15T00:00:00.742Z,58.26
2018-02-15T00:00:32.398Z,57.83
2018-02-15T00:01:04.053Z,57.99
2018-02-15T00:01:35.713Z,58.13
2018-02-15T00:02:07.380Z,57.83
2018-02-15T00:02:39.046Z,57.79
2018-02-15T00:03:10.700Z,57.57
2018-02-15T00:03:42.357Z,57.71
2018-02-15T00:04:14.053Z,57.62
2018-02-15T00:04:45.715Z,57.92
2018-02-15T00:05:17.421Z,57.57
2018-02-15T00:05:49.086Z,57.94
2018-02-15T00:06:20.755Z,57.77
2018-02-15T00:06:52.416Z,57.68
2018-02-15T00:07:24.076Z,57.60
2018-02-15T00:07:55.738Z,57.98
2018-02-15T00:08:27.413Z,57.89
2018-02-15T00:08:59.070Z,58.14
2018-02-15T00:09:30.734Z,57.87
2018-02-15T00:10:02.431Z,57.65
2018-02-15T00:10:34.133Z,57.70
2018-02-15T00:11:05.797Z,57.75
2018-02-15T00:11:37.463Z,57.69
2018-02-15T00:12:09.126Z,57.61
2018-02-15T00:12:40.785Z,57.42
2018-02-15T00:13:12.447Z,57.40
2018-02-15T00:13:44.113Z,57.54
2018-02-15T00:14:15.837Z,57.29
2018-02-15T00:14:47.493Z,57.27
2018-02-15T00:15:19.158Z,57.31
2018-02-15T00:15:50.822Z,57.39
2018-02-15T00:16:22.481Z,57.33
2018-02-15T00:16:54.132Z,57.21
2018-02-15T00:17:25.792Z,57.21
2018-02-15T00:17:57.455Z,57.13
2018-02-15T00:18:29.118Z,57.25
2018-02-15T00:19:00.821Z,57.11
2018-02-15T00:19:32.525Z,57.03
2018-02-15T00:20:04.181Z,57.00
2018-02-15T00:20:35.833Z,57.01
2018-02-15T00:21:07.499Z,57.00
2018-02-15T00:21:39.159Z,57.01
2018-02-15T00:22:10.869Z,56.82
2018-02-15T00:22:42.530Z,56.92
2018-02-15T00:23:14.199Z,56.85
2018-02-15T00:23:45.864Z,56.76
2018-02-15T00:24:17.513Z,56.78
2018-02-15T00:24:49.208Z,56.79
2018-02-15T00:25:20.877Z,56.84
2018-02-15T00:25:52.534Z,56.75
2018-02-15T00:26:24.254Z,56.74
2018-02-15T00:26:55.919Z,56.86
2018-02-15T00:27:27.581Z,56.61
2018-02-15T00:27:59.241Z,56.70
2018-02-15T00:28:30.906Z,56.76
2018-02-15T00:29:02.589Z,56.53
2018-02-15T00:29:34.249Z,56.53
2018-02-15T00:30:05.906Z,56.55
2018-02-15T00:30:37.578Z,56.62
2018-02-15T00:31:09.237Z,56.71
2018-02-15T00:31:40.934Z,56.76
2018-02-15T00:32:12.637Z,56.44
2018-02-15T00:32:44.298Z,56.35
2018-02-15T00:33:15.954Z,56.35
2018-02-15T00:33:47.620Z,56.37
2018-02-15T00:34:19.277Z,56.40
2018-02-15T00:34:50.930Z,56.39
2018-02-15T00:35:22.586Z,56.36
2018-02-15T00:35:54.250Z,56.59
2018-02-15T00:36:25.934Z,56.44
2018-02-15T00:36:57.604Z,56.35
2018-02-15T00:37:29.332Z,56.16
2018-02-15T00:38:00.988Z,56.19
2018-02-15T00:38:32.650Z,56.39
2018-02-15T00:39:04.306Z,56.12
2018-02-15T00:39:35.986Z,56.05
2018-02-15T00:40:07.652Z,56.01
2018-02-15T00:40:39.322Z,56.14
2018-02-15T00:41:10.987Z,56.28
2018-02-15T00:41:42.651Z,56.50
2018-02-15T00:42:14.313Z,56.58
2018-02-15T00:42:46.014Z,56.32
2018-02-15T00:43:17.670Z,56.38
2018-02-15T00:43:49.331Z,56.43
2018-02-15T00:44:20.994Z,56.62
2018-02-15T00:44:52.653Z,56.56
2018-02-15T00:45:24.329Z,56.27
2018-02-15T00:45:56.030Z,56.23
2018-02-15T00:46:27.690Z,56.28
2018-02-15T00:46:59.350Z,56.25
2018-02-15T00:47:31.046Z,56.28
2018-02-15T00:48:02.728Z,56.08
2018-02-15T00:48:34.437Z,56.15
2018-02-15T00:49:06.110Z,56.23
2018-02-15T00:49:37.769Z,56.25
2018-02-15T00:50:09.429Z,56.25
2018-02-15T00:50:41.089Z,56.31
2018-02-15T00:51:12.753Z,56.19
2018-02-15T00:51:44.406Z,56.26
2018-02-15T00:52:16.068Z,56.17
2018-02-15T00:52:47.780Z,56.05
2018-02-15T00:53:19.442Z,56.45
2018-02-15T00:53:51.101Z,56.23
2018-02-15T00:54:22.757Z,56.44
2018-02-15T00:54:54.445Z,56.47
2018-02-15T00:55:26.105Z,56.51
2018-02-15T00:55:57.777Z,56.75
2018-02-15T00:56:29.437Z,56.56
2018-02-15T00:57:01.106Z,56.59
2018-02-15T00:57:32.760Z,56.64
2018-02-15T00:58:04.429Z,57.16
2018-02-15T00:58:36.090Z,56.73
2018-02-15T00:59:07.794Z,56.64
2018-02-15T00:59:39.458Z,56.57
2018-02-15T01:00:11.171Z,56.63
2018-02-15T01:00:42.830Z,56.59
2018-02-15T01:01:14.486Z,56.55
2018-02-15T01:01:46.145Z,56.80
2018-02-15T01:02:17.811Z,56.81
2018-02-15T01:02:49.480Z,56.57
2018-02-15T01:03:21.142Z,56.51
2018-02-15T01:03:52.829Z,56.58
2018-02-15T01:04:24.490Z,56.41
2018-02-15T01:04:56.158Z,56.63
2018-02-15T01:05:27.818Z,56.39
2018-02-15T01:05:59.478Z,56.54
2018-02-15T01:06:31.149Z,56.80
2018-02-15T01:07:02.811Z,56.81
2018-02-15T01:07:34.470Z,56.83
2018-02-15T01:08:06.129Z,56.63
2018-02-15T01:08:37.790Z,56.62
2018-02-15T01:09:09.455Z,56.74
2018-02-15T01:09:41.113Z,56.70
2018-02-15T01:10:12.782Z,56.63
2018-02-15T01:10:44.482Z,56.64
2018-02-15T01:11:16.190Z,56.54
2018-02-15T01:11:47.848Z,56.45
2018-02-15T01:12:19.515Z,56.59
2018-02-15T01:12:51.181Z,56.44
2018-02-15T01:13:22.842Z,56.42
2018-02-15T01:13:54.497Z,56.35
2018-02-15T01:14:26.161Z,56.32
2018-02-15T01:14:57.818Z,56.29
2018-02-15T01:15:29.482Z,56.54
2018-02-15T01:16:01.145Z,56.47
2018-02-15T01:16:32.859Z,56.41
2018-02-15T01:17:04.517Z,56.39
2018-02-15T01:17:36.181Z,56.39
2018-02-15T01:18:07.839Z,56.48
2018-02-15T01:18:39.501Z,56.63
2018-02-15T01:19:11.157Z,56.48
2018-02-15T01:19:42.817Z,56.40
2018-02-15T01:20:14.478Z,56.61
2018-02-15T01:20:46.138Z,56.55
2018-02-15T01:21:17.796Z,56.50
2018-02-15T01:21:49.501Z,56.68
2018-02-15T01:22:21.164Z,56.61
2018-02-15T01:22:52.826Z,56.90
2018-02-15T01:23:24.496Z,56.77
2018-02-15T01:23:56.161Z,56.89
2018-02-15T01:24:27.825Z,56.99
2018-02-15T01:24:59.481Z,56.62
2018-02-15T01:25:31.141Z,56.65
2018-02-15T01:26:02.801Z,56.88
2018-02-15T01:26:34.466Z,57.20
2018-02-15T01:27:06.168Z,57.07
2018-02-15T01:27:37.851Z,56.70
2018-02-15T01:28:09.785Z,56.79
2018-02-15T01:28:41.440Z,56.95
2018-02-15T01:29:13.242Z,56.90
2018-02-15T01:29:44.902Z,56.83
2018-02-15T01:30:16.564Z,56.89
2018-02-15T01:30:48.223Z,56.79
2018-02-15T01:31:19.877Z,56.92
2018-02-15T01:31:51.534Z,57.18
2018-02-15T01:32:23.200Z,56.81
2018-02-15T01:32:54.861Z,57.12
2018-02-15T01:33:26.575Z,57.34
2018-02-15T01:33:58.233Z,57.27
2018-02-15T01:34:29.890Z,57.31
2018-02-15T01:35:01.554Z,57.03
2018-02-15T01:35:33.214Z,57.00
2018-02-15T01:36:04.869Z,56.96
2018-02-15T01:36:36.526Z,56.94
2018-02-15T01:37:08.195Z,56.89
2018-02-15T01:37:39.853Z,56.86
2018-02-15T01:38:11.516Z,56.96
2018-02-15T01:38:43.212Z,56.96
2018-02-15T01:39:14.877Z,56.94
2018-02-15T01:39:46.541Z,56.95
2018-02-15T01:40:18.206Z,57.00
2018-02-15T01:40:49.861Z,57.02
2018-02-15T01:41:21.566Z,57.03
2018-02-15T01:41:53.226Z,57.20
2018-02-15T01:42:24.881Z,57.04
2018-02-15T01:42:56.541Z,57.27
2018-02-15T01:43:28.200Z,57.17
2018-02-15T01:43:59.870Z,57.11
2018-02-15T01:44:31.533Z,57.23
2018-02-15T01:45:03.233Z,57.23
2018-02-15T01:45:34.889Z,57.32
2018-02-15T01:46:06.602Z,57.30
2018-02-15T01:46:38.257Z,57.22
2018-02-15T01:47:09.913Z,57.24
2018-02-15T01:47:41.573Z,57.34
2018-02-15T01:48:13.230Z,57.34
2018-02-15T01:48:44.894Z,57.30
2018-02-15T01:49:16.549Z,57.39
2018-02-15T01:49:48.205Z,57.20
2018-02-15T01:50:19.860Z,57.47
2018-02-15T01:50:51.518Z,57.32
2018-02-15T01:51:23.230Z,57.21
2018-02-15T01:51:54.890Z,57.19
2018-02-15T01:52:26.555Z,57.15
2018-02-15T01:52:58.218Z,56.99
2018-02-15T01:53:29.881Z,56.98
2018-02-15T01:54:01.542Z,57.04
2018-02-15T01:54:33.197Z,56.97
2018-02-15T01:55:04.850Z,57.07
2018-02-15T01:55:36.509Z,56.95
2018-02-15T01:56:08.169Z,56.88
2018-02-15T01:56:39.874Z,56.75
2018-02-15T01:57:11.548Z,56.66
2018-02-15T01:57:43.205Z,56.76
2018-02-15T01:58:14.872Z,56.67
2018-02-15T01:58:46.533Z,56.53
2018-02-15T01:59:18.189Z,56.50
2018-02-15T01:59:49.845Z,56.52
2018-02-15T02:00:21.502Z,56.49
2018-02-15T02:00:53.159Z,56.42
2018-02-15T02:01:24.813Z,56.64
2018-02-15T02:01:56.513Z,56.57
2018-02-15T02:02:28.174Z,56.68
2018-02-15T02:02:59.838Z,56.62
2018-02-15T02:03:31.513Z,56.44
2018-02-15T02:04:03.214Z,56.53
2018-02-15T02:04:34.870Z,56.53
2018-02-15T02:05:06.577Z,56.58
2018-02-15T02:05:38.230Z,56.60
2018-02-15T02:06:09.902Z,56.63
2018-02-15T02:06:41.558Z,56.46
2018-02-15T02:07:13.218Z,56.38
2018-02-15T02:07:44.877Z,56.47
2018-02-15T02:08:16.546Z,56.42
2018-02-15T02:08:48.209Z,56.39
2018-02-15T02:09:19.878Z,56.44
2018-02-15T02:09:51.536Z,56.23
2018-02-15T02:10:23.234Z,56.32
2018-02-15T02:10:54.894Z,56.33
2018-02-15T02:11:26.549Z,56.22
2018-02-15T02:11:58.209Z,56.25
2018-02-15T02:12:29.868Z,56.18
2018-02-15T02:13:01.566Z,56.28
2018-02-15T02:13:33.226Z,56.20
2018-02-15T02:14:04.889Z,56.19
2018-02-15T02:14:36.549Z,56.24
2018-02-15T02:15:08.210Z,56.22
2018-02-15T02:15:39.864Z,56.36
2018-02-15T02:16:11.526Z,56.44
2018-02-15T02:16:43.185Z,56.25
2018-02-15T02:17:14.846Z,56.25
2018-02-15T02:17:46.550Z,56.22
2018-02-15T02:18:18.209Z,56.05
2018-02-15T02:18:49.869Z,56.12
2018-02-15T02:19:21.534Z,56.14
2018-02-15T02:19:53.194Z,56.30
2018-02-15T02:20:24.856Z,56.18
2018-02-15T02:20:56.656Z,56.16
2018-02-15T02:21:28.319Z,56.20
2018-02-15T02:21:59.986Z,56.20
2018-02-15T02:22:31.641Z,56.38
2018-02-15T02:23:03.338Z,56.27
2018-02-15T02:23:35.002Z,56.29
2018-02-15T02:24:06.666Z,56.27
2018-02-15T02:24:38.325Z,56.28
2018-02-15T02:25:09.991Z,56.41
2018-02-15T02:25:41.649Z,56.33
2018-02-15T02:26:13.306Z,56.16
2018-02-15T02:26:44.966Z,56.14
2018-02-15T02:27:16.617Z,56.13
2018-02-15T02:27:48.349Z,56.19
2018-02-15T02:28:20.007Z,56.23
2018-02-15T02:28:51.663Z,56.22
2018-02-15T02:29:23.326Z,56.23
2018-02-15T02:29:54.981Z,56.26
2018-02-15T02:30:26.683Z,56.11
2018-02-15T02:30:58.332Z,56.09
2018-02-15T02:31:29.994Z,56.16
2018-02-15T02:32:01.657Z,56.06
2018-02-15T02:32:33.314Z,56.18
2018-02-15T02:33:05.022Z,56.16
2018-02-15T02:33:36.680Z,56.04
2018-02-15T02:34:08.342Z,56.19
2018-02-15T02:34:40.007Z,56.20
2018-02-15T02:35:12.236Z,55.95
2018-02-15T02:35:43.896Z,55.97
2018-02-15T02:36:15.567Z,55.94
2018-02-15T02:36:47.229Z,56.04
2018-02-15T02:37:18.943Z,56.04
2018-02-15T02:37:50.614Z,56.07
2018-02-15T02:38:22.274Z,55.98
2018-02-15T02:38:53.933Z,55.94
2018-02-15T02:39:25.591Z,56.06
2018-02-15T02:39:57.253Z,56.02
2018-02-15T02:40:28.909Z,55.90
2018-02-15T02:41:00.562Z,56.05
2018-02-15T02:41:32.226Z,55.89
2018-02-15T02:42:03.911Z,55.92
2018-02-15T02:42:35.610Z,55.92
2018-02-15T02:43:07.266Z,55.88
2018-02-15T02:43:38.933Z,55.90
2018-02-15T02:44:10.593Z,56.06
2018-02-15T02:44:42.256Z,55.98
2018-02-15T02:45:13.919Z,55.91
2018-02-15T02:45:45.582Z,55.97
2018-02-15T02:46:17.242Z,55.93
2018-02-15T02:46:48.937Z,55.89
2018-02-15T02:47:20.601Z,55.82
2018-02-15T02:47:52.263Z,55.80
2018-02-15T02:48:23.923Z,55.81
2018-02-15T02:48:55.577Z,55.79
2018-02-15T02:49:27.247Z,55.83
2018-02-15T02:49:58.901Z,55.77
2018-02-15T02:50:30.558Z,55.89
2018-02-15T02:51:02.218Z,55.87
2018-02-15T02:51:33.878Z,55.97
2018-02-15T02:52:05.580Z,55.83
2018-02-15T02:52:37.242Z,55.86
2018-02-15T02:53:08.901Z,55.84
2018-02-15T02:53:40.554Z,55.94
2018-02-15T02:54:12.221Z,56.06
2018-02-15T02:54:43.881Z,56.12
2018-02-15T02:55:15.538Z,55.93
2018-02-15T02:55:47.197Z,55.92
2018-02-15T02:56:18.858Z,55.96
2018-02-15T02:56:50.523Z,55.84
2018-02-15T02:57:22.221Z,55.96
2018-02-15T02:57:53.882Z,56.66
2018-02-15T02:58:25.541Z,56.10
2018-02-15T02:58:57.194Z,56.01
2018-02-15T02:59:28.849Z,56.04
2018-02-15T03:00:00.516Z,56.19
2018-02-15T03:00:32.183Z,55.69
2018-02-15T03:01:03.850Z,55.28
2018-02-15T03:01:35.549Z,55.32
2018-02-15T03:02:07.205Z,55.19
2018-02-15T03:02:38.868Z,55.14
2018-02-15T03:03:10.526Z,55.17
2018-02-15T03:03:42.186Z,55.15
2018-02-15T03:04:13.846Z,55.23
2018-02-15T03:04:45.506Z,55.34
2018-02-15T03:05:17.165Z,55.29
2018-02-15T03:05:48.873Z,55.33
2018-02-15T03:06:20.530Z,55.39
2018-02-15T03:06:52.194Z,55.53
2018-02-15T03:07:23.897Z,55.61
2018-02-15T03:07:55.554Z,55.69
2018-02-15T03:08:27.213Z,55.91
2018-02-15T03:08:58.873Z,55.94
2018-02-15T03:09:30.532Z,55.82
2018-02-15T03:10:02.193Z,55.95
2018-02-15T03:10:33.854Z,55.90
2018-02-15T03:11:05.555Z,56.03
2018-02-15T03:11:37.217Z,55.87
2018-02-15T03:12:08.874Z,55.93
2018-02-15T03:12:40.538Z,55.98
2018-02-15T03:13:12.198Z,55.98
2018-02-15T03:13:43.861Z,56.06
2018-02-15T03:14:15.566Z,55.93
2018-02-15T03:14:47.269Z,56.00
2018-02-15T03:15:18.928Z,56.14
2018-02-15T03:15:50.598Z,56.26
2018-02-15T03:16:22.276Z,56.19
2018-02-15T03:16:53.937Z,56.28
2018-02-15T03:17:25.589Z,56.33
2018-02-15T03:17:57.245Z,56.19
2018-02-15T03:18:28.909Z,56.31
2018-02-15T03:19:00.574Z,56.17
2018-02-15T03:19:32.238Z,56.24
2018-02-15T03:20:03.897Z,56.49
2018-02-15T03:20:35.566Z,56.43
2018-02-15T03:21:07.232Z,56.56
2018-02-15T03:21:38.890Z,56.58
2018-02-15T03:22:10.592Z,56.82
2018-02-15T03:22:42.257Z,56.85
2018-02-15T03:23:13.918Z,56.81
2018-02-15T03:23:45.620Z,57.15
2018-02-15T03:24:17.316Z,56.96
2018-02-15T03:24:48.974Z,56.93
2018-02-15T03:25:20.633Z,56.84
2018-02-15T03:25:52.306Z,56.83
2018-02-15T03:26:23.969Z,56.75
2018-02-15T03:26:55.636Z,56.69
2018-02-15T03:27:27.298Z,56.86
2018-02-15T03:27:58.962Z,57.14
2018-02-15T03:28:30.622Z,56.77
2018-02-15T03:29:02.341Z,56.86
2018-02-15T03:29:34.010Z,56.76
2018-02-15T03:30:05.671Z,56.75
2018-02-15T03:30:37.338Z,56.65
2018-02-15T03:31:09.012Z,56.75
2018-02-15T03:31:40.671Z,56.62
2018-02-15T03:32:12.330Z,56.75
2018-02-15T03:32:43.990Z,56.67
2018-02-15T03:33:15.651Z,56.71
2018-02-15T03:33:47.317Z,56.83
2018-02-15T03:34:19.028Z,57.43
2018-02-15T03:34:50.688Z,57.37
2018-02-15T03:35:22.352Z,57.31
2018-02-15T03:35:54.017Z,57.26
2018-02-15T03:36:25.673Z,57.29
2018-02-15T03:36:57.331Z,57.22
2018-02-15T03:37:28.989Z,57.00
2018-02-15T03:38:00.645Z,57.19
2018-02-15T03:38:32.306Z,57.46
2018-02-15T03:39:03.971Z,57.19
2018-02-15T03:39:35.628Z,57.45
2018-02-15T03:40:07.283Z,57.33
2018-02-15T03:40:38.950Z,57.12
2018-02-15T03:41:12.203Z,58.40
2018-02-15T03:41:43.934Z,57.65
2018-02-15T03:42:15.644Z,57.11
2018-02-15T03:42:47.306Z,57.77
2018-02-15T03:43:18.971Z,56.43
2018-02-15T03:43:50.629Z,55.69
2018-02-15T03:44:22.282Z,55.34
2018-02-15T03:44:53.985Z,55.06
2018-02-15T03:45:25.645Z,53.29
2018-02-15T03:45:57.310Z,52.72
2018-02-15T03:46:28.974Z,52.42
2018-02-15T03:47:00.637Z,50.82
2018-02-15T03:47:32.298Z,51.22
2018-02-15T03:48:03.955Z,50.16
2018-02-15T03:48:35.613Z,49.99
2018-02-15T03:49:07.274Z,49.20
2018-02-15T03:49:38.937Z,48.84
2018-02-15T03:50:10.593Z,48.78
2018-02-15T03:50:42.253Z,48.70
2018-02-15T03:51:13.966Z,50.50
2018-02-15T03:51:45.626Z,48.04
2018-02-15T03:52:17.306Z,48.51
2018-02-15T03:52:48.957Z,48.01
2018-02-15T03:53:20.618Z,47.75
2018-02-15T03:53:52.273Z,47.75
2018-02-15T03:54:23.930Z,48.91
2018-02-15T03:54:55.585Z,48.69
2018-02-15T03:55:27.253Z,49.45
2018-02-15T03:55:58.909Z,50.58
2018-02-15T03:56:30.638Z,50.04
2018-02-15T03:57:02.297Z,50.56
2018-02-15T03:57:33.962Z,50.72
2018-02-15T03:58:05.666Z,50.91
2018-02-15T03:58:37.321Z,50.47
2018-02-15T03:59:08.985Z,50.24
2018-02-15T03:59:40.640Z,50.04
2018-02-15T04:00:12.302Z,50.01
2018-02-15T04:00:43.966Z,50.07
2018-02-15T04:01:15.629Z,50.13
2018-02-15T04:01:47.595Z,50.14
2018-02-15T04:02:19.353Z,50.24
2018-02-15T04:02:51.013Z,50.17
2018-02-15T04:03:22.664Z,50.19
2018-02-15T04:03:54.321Z,50.17
2018-02-15T04:04:25.973Z,50.12
2018-02-15T04:04:57.627Z,50.14
2018-02-15T04:05:29.290Z,50.00
2018-02-15T04:06:01.013Z,50.09
2018-02-15T04:06:32.675Z,50.01
2018-02-15T04:07:04.334Z,50.00
2018-02-15T04:07:35.994Z,49.93
2018-02-15T04:08:07.661Z,49.90
2018-02-15T04:08:39.317Z,50.05
2018-02-15T04:09:10.969Z,50.18
2018-02-15T04:09:42.625Z,50.10
2018-02-15T04:10:14.289Z,50.05
2018-02-15T04:10:45.946Z,50.04
2018-02-15T04:11:17.647Z,50.14
2018-02-15T04:11:49.306Z,50.10
2018-02-15T04:12:23.407Z,50.16
2018-02-15T04:12:55.218Z,50.12
2018-02-15T04:13:27.017Z,50.07
2018-02-15T04:13:58.678Z,50.15
2018-02-15T04:14:30.328Z,50.25
2018-02-15T04:15:01.990Z,50.38
2018-02-15T04:15:33.647Z,50.29
2018-02-15T04:16:05.346Z,50.37
2018-02-15T04:16:37.006Z,50.41
2018-02-15T04:17:08.663Z,50.48
2018-02-15T04:17:40.353Z,50.53
2018-02-15T04:18:12.010Z,50.61
2018-02-15T04:18:43.680Z,50.62
2018-02-15T04:19:15.337Z,50.65
2018-02-15T04:19:46.993Z,50.66
2018-02-15T04:20:18.701Z,50.68
2018-02-15T04:20:50.361Z,50.78
2018-02-15T04:21:22.022Z,50.83
2018-02-15T04:21:53.682Z,50.90
2018-02-15T04:22:25.337Z,50.88
2018-02-15T04:22:56.995Z,50.97
2018-02-15T04:23:28.649Z,51.02
2018-02-15T04:24:00.309Z,51.05
2018-02-15T04:24:31.961Z,51.03
2018-02-15T04:25:03.613Z,51.04
2018-02-15T04:25:35.273Z,51.10
2018-02-15T04:26:06.934Z,51.10
2018-02-15T04:26:38.590Z,51.14
2018-02-15T04:27:10.249Z,51.18
2018-02-15T04:27:41.905Z,51.20
2018-02-15T04:28:13.566Z,51.38
2018-02-15T04:28:45.223Z,51.33
2018-02-15T04:29:16.886Z,51.42
2018-02-15T04:29:48.552Z,51.41
2018-02-15T04:30:20.213Z,51.38
2018-02-15T04:30:51.917Z,51.44
2018-02-15T04:31:23.578Z,51.43
2018-02-15T04:31:55.234Z,51.48
2018-02-15T04:32:26.895Z,51.53
2018-02-15T04:32:58.550Z,51.47
2018-02-15T04:33:30.208Z,51.47
2018-02-15T04:34:01.866Z,51.50
2018-02-15T04:34:33.524Z,51.50
2018-02-15T04:35:05.185Z,51.54
2018-02-15T04:35:36.897Z,51.59
2018-02-15T04:36:08.554Z,51.56
2018-02-15T04:36:40.210Z,51.58
2018-02-15T04:37:11.869Z,51.55
2018-02-15T04:37:43.533Z,51.56
2018-02-15T04:38:15.190Z,51.60
2018-02-15T04:38:46.851Z,51.58
2018-02-15T04:39:18.505Z,51.50
2018-02-15T04:39:50.161Z,51.57
2018-02-15T04:40:21.815Z,51.60
2018-02-15T04:40:53.517Z,51.57
2018-02-15T04:41:25.175Z,51.59
2018-02-15T04:41:56.838Z,51.66
2018-02-15T04:42:28.490Z,51.69
2018-02-15T04:43:00.145Z,51.73
2018-02-15T04:43:31.804Z,51.71
2018-02-15T04:44:03.471Z,51.69
2018-02-15T04:44:35.129Z,51.68
2018-02-15T04:45:06.832Z,51.69
2018-02-15T04:45:38.490Z,51.76
2018-02-15T04:46:10.150Z,51.81
2018-02-15T04:46:41.810Z,51.79
2018-02-15T04:47:13.473Z,51.76
2018-02-15T04:47:45.125Z,51.80
2018-02-15T04:48:16.823Z,51.79
2018-02-15T04:48:48.486Z,51.79
2018-02-15T04:49:20.145Z,51.78
2018-02-15T04:49:51.802Z,51.79
2018-02-15T04:50:23.466Z,51.89
2018-02-15T04:50:55.125Z,51.86
2018-02-15T04:51:26.786Z,51.81
2018-02-15T04:51:58.442Z,51.81
2018-02-15T04:52:30.118Z,51.83
2018-02-15T04:53:01.777Z,51.82
2018-02-15T04:53:33.436Z,51.83
2018-02-15T04:54:05.102Z,51.83
2018-02-15T04:54:36.758Z,51.86
2018-02-15T04:55:08.453Z,51.89
2018-02-15T04:55:40.114Z,51.86
2018-02-15T04:56:11.810Z,51.90
2018-02-15T04:56:43.477Z,51.91
2018-02-15T04:57:15.138Z,51.95
2018-02-15T04:57:46.798Z,51.94
2018-02-15T04:58:18.457Z,51.98
2018-02-15T04:58:50.115Z,51.94
2018-02-15T04:59:21.781Z,51.93
2018-02-15T04:59:53.437Z,51.92
2018-02-15T05:00:25.101Z,51.89
2018-02-15T05:00:56.811Z,51.92
2018-02-15T05:01:28.470Z,51.92
2018-02-15T05:02:00.130Z,51.92
2018-02-15T05:02:31.789Z,51.98
2018-02-15T05:03:03.456Z,51.98
2018-02-15T05:03:35.112Z,51.99
2018-02-15T05:04:06.770Z,52.06
2018-02-15T05:04:38.436Z,52.08
2018-02-15T05:05:10.094Z,52.14
2018-02-15T05:05:41.751Z,52.17
2018-02-15T05:06:13.453Z,52.15
2018-02-15T05:06:45.116Z,52.21
2018-02-15T05:07:16.773Z,52.24
2018-02-15T05:07:48.425Z,52.19
2018-02-15T05:08:20.131Z,52.20
2018-02-15T05:08:51.789Z,52.20
2018-02-15T05:09:23.454Z,52.23
2018-02-15T05:09:55.108Z,52.33
2018-02-15T05:10:26.763Z,52.30
2018-02-15T05:10:58.425Z,52.31
2018-02-15T05:11:30.082Z,52.31
2018-02-15T05:12:01.742Z,52.32
2018-02-15T05:12:33.403Z,52.34
2018-02-15T05:13:05.061Z,52.30
2018-02-15T05:13:36.761Z,52.28
2018-02-15T05:14:08.418Z,52.32
2018-02-15T05:14:40.077Z,52.36
2018-02-15T05:15:11.729Z,52.33
2018-02-15T05:15:43.393Z,52.37
2018-02-15T05:16:15.091Z,52.38
2018-02-15T05:16:46.749Z,52.34
2018-02-15T05:17:18.405Z,52.37
2018-02-15T05:17:50.062Z,52.41
2018-02-15T05:18:21.726Z,52.36
2018-02-15T05:18:53.386Z,52.36
2018-02-15T05:19:25.046Z,52.39
2018-02-15T05:19:56.709Z,52.46
2018-02-15T05:20:28.410Z,52.54
2018-02-15T05:21:00.076Z,52.52
2018-02-15T05:21:31.738Z,52.55
2018-02-15T05:22:03.397Z,52.48
2018-02-15T05:22:35.062Z,52.53
2018-02-15T05:23:06.726Z,52.50
2018-02-15T05:23:38.384Z,52.46
2018-02-15T05:24:10.047Z,52.47
2018-02-15T05:24:41.702Z,52.47
2018-02-15T05:25:13.402Z,52.46
2018-02-15T05:25:45.058Z,52.49
2018-02-15T05:26:16.718Z,52.49
2018-02-15T05:26:48.369Z,52.48
2018-02-15T05:27:20.029Z,52.45
2018-02-15T05:27:51.689Z,52.45
2018-02-15T05:28:23.350Z,52.50
2018-02-15T05:28:55.010Z,52.47
2018-02-15T05:29:26.705Z,52.42
2018-02-15T05:29:58.371Z,52.39
2018-02-15T05:30:30.030Z,52.39
2018-02-15T05:31:01.693Z,52.41
2018-02-15T05:31:33.351Z,52.39
2018-02-15T05:32:05.010Z,52.34
2018-02-15T05:32:36.669Z,52.37
2018-02-15T05:33:08.326Z,52.33
2018-02-15T05:33:39.984Z,52.30
2018-02-15T05:34:11.661Z,52.27
2018-02-15T05:34:43.317Z,52.21
2018-02-15T05:35:14.973Z,52.22
2018-02-15T05:35:46.635Z,52.23
2018-02-15T05:36:18.348Z,52.22
2018-02-15T05:36:50.005Z,52.21
2018-02-15T05:37:21.660Z,52.20
2018-02-15T05:37:53.317Z,52.21
2018-02-15T05:38:24.981Z,52.20
2018-02-15T05:38:56.646Z,52.18
2018-02-15T05:39:28.305Z,52.13
2018-02-15T05:39:59.961Z,52.14
2018-02-15T05:40:31.621Z,52.11
2018-02-15T05:41:03.278Z,52.13
2018-02-15T05:41:34.978Z,52.10
2018-02-15T05:42:06.634Z,52.06
2018-02-15T05:42:38.292Z,52.10
2018-02-15T05:43:09.946Z,52.08
2018-02-15T05:43:41.604Z,52.03
2018-02-15T05:44:13.266Z,52.03
2018-02-15T05:44:44.929Z,52.04
2018-02-15T05:45:16.592Z,52.02
2018-02-15T05:45:48.263Z,51.99
2018-02-15T05:46:19.966Z,51.96
2018-02-15T05:46:51.626Z,51.96
2018-02-15T05:47:23.282Z,51.93
2018-02-15T05:47:54.933Z,51.98
2018-02-15T05:48:26.592Z,51.93
2018-02-15T05:48:58.253Z,51.93
2018-02-15T05:49:29.917Z,51.92
2018-02-15T05:50:01.588Z,51.85
2018-02-15T05:50:33.285Z,51.88
2018-02-15T05:51:04.946Z,51.86
2018-02-15T05:51:36.646Z,51.90
2018-02-15T05:52:08.305Z,51.88
2018-02-15T05:52:39.963Z,51.88
2018-02-15T05:53:11.624Z,51.81
2018-02-15T05:53:43.285Z,51.83
2018-02-15T05:54:14.994Z,51.84
2018-02-15T05:54:46.665Z,51.83
2018-02-15T05:55:18.322Z,51.81
2018-02-15T05:55:49.981Z,51.81
2018-02-15T05:56:21.638Z,51.80
2018-02-15T05:56:53.297Z,51.70
2018-02-15T05:57:24.962Z,51.70
2018-02-15T05:57:56.620Z,51.71
2018-02-15T05:58:28.278Z,51.67
2018-02-15T05:58:59.933Z,51.70
2018-02-15T05:59:31.589Z,51.67
2018-02-15T06:00:03.249Z,51.69
2018-02-15T06:00:34.912Z,51.64
2018-02-15T06:01:06.574Z,51.63
2018-02-15T06:01:38.234Z,51.63
2018-02-15T06:02:09.894Z,51.62
2018-02-15T06:02:41.541Z,51.49
2018-02-15T06:03:13.196Z,51.47
2018-02-15T06:03:44.866Z,51.48
2018-02-15T06:04:16.529Z,51.46
2018-02-15T06:04:48.189Z,51.40
2018-02-15T06:05:19.895Z,51.40
2018-02-15T06:05:51.551Z,51.45
2018-02-15T06:06:23.205Z,51.43
2018-02-15T06:06:54.864Z,51.39
2018-02-15T06:07:26.525Z,51.34
2018-02-15T06:07:58.181Z,51.34
2018-02-15T06:08:29.837Z,51.26
2018-02-15T06:09:01.504Z,51.27
2018-02-15T06:09:33.176Z,51.16
2018-02-15T06:10:04.837Z,51.17
2018-02-15T06:10:36.537Z,51.16
2018-02-15T06:11:08.190Z,51.19
2018-02-15T06:11:39.842Z,51.16
2018-02-15T06:12:11.493Z,51.17
2018-02-15T06:12:43.149Z,51.21
2018-02-15T06:13:14.810Z,51.16
2018-02-15T06:13:46.465Z,51.12
2018-02-15T06:14:18.121Z,51.12
2018-02-15T06:14:49.782Z,51.13
2018-02-15T06:15:21.446Z,51.15
2018-02-15T06:15:53.141Z,51.10
2018-02-15T06:16:24.799Z,51.09
2018-02-15T06:16:56.455Z,51.09
2018-02-15T06:17:28.166Z,51.04
2018-02-15T06:17:59.831Z,51.05
2018-02-15T06:18:31.490Z,51.02
2018-02-15T06:19:03.155Z,51.10
2018-02-15T06:19:34.833Z,51.09
2018-02-15T06:20:06.534Z,51.08
2018-02-15T06:20:38.329Z,51.08
2018-02-15T06:21:10.129Z,51.04
2018-02-15T06:21:41.920Z,51.09
2018-02-15T06:22:13.757Z,51.09
2018-02-15T06:22:45.604Z,51.11
2018-02-15T06:23:17.405Z,51.14
2018-02-15T06:23:49.196Z,51.13
2018-02-15T06:24:20.993Z,51.13
2018-02-15T06:24:52.790Z,51.14
2018-02-15T06:25:24.589Z,51.15
2018-02-15T06:25:56.386Z,51.21
2018-02-15T06:26:28.181Z,51.16
2018-02-15T06:26:59.969Z,51.23
2018-02-15T06:27:31.761Z,51.25
2018-02-15T06:28:03.597Z,51.19
2018-02-15T06:28:35.439Z,51.16
2018-02-15T06:29:07.281Z,51.15
2018-02-15T06:29:39.076Z,51.10
2018-02-15T06:30:10.873Z,51.14
2018-02-15T06:30:42.673Z,51.19
2018-02-15T06:31:14.465Z,51.22
2018-02-15T06:31:46.257Z,51.24
2018-02-15T06:32:18.049Z,51.25
2018-02-15T06:32:49.844Z,51.20
2018-02-15T06:33:21.642Z,51.21
2018-02-15T06:33:53.482Z,51.24
2018-02-15T06:34:25.306Z,51.25
2018-02-15T06:34:57.116Z,51.23
2018-02-15T06:35:28.914Z,51.22
2018-02-15T06:36:00.709Z,51.17
2018-02-15T06:36:32.565Z,51.23
2018-02-15T06:37:04.354Z,51.23
2018-02-15T06:37:36.146Z,51.22
2018-02-15T06:38:07.949Z,51.13
2018-02-15T06:38:39.741Z,51.18
2018-02-15T06:39:11.582Z,51.18
2018-02-15T06:39:43.373Z,51.24
2018-02-15T06:40:15.169Z,51.25
2018-02-15T06:40:46.965Z,51.25
2018-02-15T06:41:18.762Z,51.23
2018-02-15T06:41:50.555Z,51.28
2018-02-15T06:42:22.351Z,51.26
2018-02-15T06:42:54.148Z,51.26
2018-02-15T06:43:25.993Z,51.24
2018-02-15T06:43:57.788Z,51.23
2018-02-15T06:44:29.582Z,51.25
2018-02-15T06:45:01.378Z,51.26
2018-02-15T06:45:33.172Z,51.30
2018-02-15T06:46:04.962Z,51.28
2018-02-15T06:46:36.757Z,51.25
2018-02-15T06:47:08.613Z,51.17
2018-02-15T06:47:40.405Z,51.16